createdAt,value
2017-12-24T00:01:06.495Z,35.43
2017-12-24T00:03:34.658Z,35.50
2017-12-24T00:06:02.821Z,31.33
2017-12-24T00:08:31.743Z,31.77
2017-12-24T00:10:59.908Z,36.30
2017-12-24T00:13:28.050Z,30.27
2017-12-24T00:15:56.997Z,36.43
2017-12-24T00:18:25.145Z,33.53
2017-12-24T00:20:53.308Z,31.43
2017-12-24T00:23:21.527Z,34.67
2017-12-24T00:25:49.701Z,32.90
2017-12-24T00:28:17.838Z,29.10
2017-12-24T00:30:46.834Z,33.43
2017-12-24T00:33:14.970Z,36.60
2017-12-24T00:35:43.140Z,31.80
2017-12-24T00:38:11.325Z,34.50
2017-12-24T00:40:40.252Z,33.40
2017-12-24T00:43:08.394Z,32.17
2017-12-24T00:45:36.548Z,32.27
2017-12-24T00:48:04.692Z,29.27
2017-12-24T00:50:32.866Z,32.47
2017-12-24T00:53:01.004Z,31.50
2017-12-24T00:55:29.330Z,29.40
2017-12-24T00:57:57.469Z,34.60
2017-12-24T01:00:25.635Z,31.07
2017-12-24T01:02:53.796Z,28.00
2017-12-24T01:05:22.733Z,35.80
2017-12-24T01:07:50.929Z,30.63
2017-12-24T01:10:19.087Z,32.00
2017-12-24T01:12:47.264Z,31.77
2017-12-24T01:15:15.409Z,31.63
2017-12-24T01:17:43.577Z,28.87
2017-12-24T01:20:12.577Z,30.70
2017-12-24T01:22:40.732Z,35.87
2017-12-24T01:25:09.642Z,32.83
2017-12-24T01:27:38.944Z,28.67
2017-12-24T01:30:08.189Z,34.80
2017-12-24T01:32:36.356Z,32.53
2017-12-24T01:35:04.509Z,30.80
2017-12-24T01:37:32.672Z,34.17
2017-12-24T01:40:00.829Z,32.73
2017-12-24T01:42:28.996Z,30.20
2017-12-24T01:44:57.902Z,34.67
2017-12-24T01:47:27.867Z,33.70
2017-12-24T01:49:56.008Z,30.23
2017-12-24T01:52:24.211Z,31.83
2017-12-24T01:54:52.369Z,35.60
2017-12-24T01:57:20.540Z,32.67
2017-12-24T01:59:48.689Z,33.10
2017-12-24T02:02:16.844Z,33.13
2017-12-24T02:04:45.745Z,37.43
2017-12-24T02:07:14.668Z,35.50
2017-12-24T02:09:42.815Z,32.90
2017-12-24T02:12:10.984Z,32.47
2017-12-24T02:14:39.145Z,32.10
2017-12-24T02:17:08.097Z,29.17
2017-12-24T02:19:36.241Z,32.30
2017-12-24T02:22:04.409Z,35.97
2017-12-24T02:24:32.558Z,30.73
2017-12-24T02:27:01.493Z,35.47
2017-12-24T02:29:29.641Z,29.80
2017-12-24T02:31:57.812Z,31.97
2017-12-24T02:34:25.957Z,31.63
2017-12-24T02:36:54.145Z,28.30
2017-12-24T02:39:23.165Z,30.83
2017-12-24T02:41:51.380Z,32.30
2017-12-24T02:44:19.537Z,33.10
2017-12-24T02:46:47.712Z,31.77
2017-12-24T02:49:15.865Z,33.47
2017-12-24T02:51:44.031Z,32.10
2017-12-24T02:54:12.169Z,33.20
2017-12-24T02:56:40.340Z,27.50
2017-12-24T02:59:08.484Z,30.10
2017-12-24T03:01:36.649Z,34.57
2017-12-24T03:04:05.022Z,31.03
2017-12-24T03:06:33.201Z,31.30
2017-12-24T03:09:01.341Z,29.63
2017-12-24T03:11:30.744Z,34.17
2017-12-24T03:13:58.894Z,27.80
2017-12-24T03:16:27.056Z,29.20
2017-12-24T03:18:55.212Z,29.70
2017-12-24T03:21:23.369Z,27.83
2017-12-24T03:23:51.510Z,31.43
2017-12-24T03:26:19.695Z,25.90
2017-12-24T03:28:47.856Z,28.57
2017-12-24T03:31:16.774Z,33.43
2017-12-24T03:33:44.955Z,30.63
2017-12-24T03:36:13.104Z,31.97
2017-12-24T03:38:42.019Z,32.50
2017-12-24T03:41:10.173Z,28.43
2017-12-24T03:43:38.357Z,29.03
2017-12-24T03:46:06.505Z,30.53
2017-12-24T03:48:35.449Z,29.23
2017-12-24T03:51:03.586Z,31.70
2017-12-24T03:53:32.537Z,30.53
2017-12-24T03:56:00.689Z,32.83
2017-12-24T03:58:28.873Z,29.17
2017-12-24T04:00:57.008Z,35.93
2017-12-24T04:03:25.189Z,36.60
2017-12-24T04:05:55.094Z,37.73
2017-12-24T04:08:23.264Z,32.30
2017-12-24T04:10:51.448Z,34.20
2017-12-24T04:13:20.365Z,35.93
2017-12-24T04:15:48.549Z,32.70
2017-12-24T04:18:16.731Z,35.80
2017-12-24T04:20:44.915Z,36.17
2017-12-24T04:23:13.089Z,39.33
2017-12-24T04:25:41.240Z,33.73
2017-12-24T04:28:09.408Z,35.00
2017-12-24T04:30:38.485Z,36.43
2017-12-24T04:33:06.665Z,35.90
2017-12-24T04:35:34.820Z,34.07
2017-12-24T04:38:04.173Z,36.87
2017-12-24T04:40:32.328Z,39.33
2017-12-24T04:43:00.499Z,36.87
2017-12-24T04:45:28.657Z,37.57
2017-12-24T04:47:56.818Z,35.37
2017-12-24T04:50:24.984Z,34.50
2017-12-24T04:52:53.915Z,32.33
2017-12-24T04:55:22.064Z,32.67
2017-12-24T04:57:50.236Z,35.77
2017-12-24T05:00:18.387Z,31.67
2017-12-24T05:02:46.544Z,33.07
2017-12-24T05:05:14.708Z,35.17
2017-12-24T05:07:42.876Z,32.60
2017-12-24T05:10:11.018Z,31.83
2017-12-24T05:12:39.186Z,35.40
2017-12-24T05:15:07.332Z,30.87
2017-12-24T05:17:36.296Z,37.40
2017-12-24T05:20:04.436Z,32.60
2017-12-24T05:22:32.604Z,33.43
2017-12-24T05:25:00.740Z,28.87
2017-12-24T05:27:29.677Z,31.50
2017-12-24T05:29:57.819Z,27.73
2017-12-24T05:32:26.744Z,37.50
2017-12-24T05:34:54.913Z,29.40
2017-12-24T05:37:23.080Z,29.80
2017-12-24T05:39:52.264Z,28.00
2017-12-24T05:42:20.472Z,27.30
2017-12-24T05:44:48.636Z,28.33
2017-12-24T05:47:16.828Z,35.33
2017-12-24T05:49:44.985Z,29.03
2017-12-24T05:52:13.138Z,28.97
2017-12-24T05:54:41.328Z,26.53
2017-12-24T05:57:09.493Z,26.50
2017-12-24T05:59:37.676Z,25.67
2017-12-24T06:02:05.865Z,26.50
2017-12-24T06:04:34.044Z,33.30
2017-12-24T06:07:02.200Z,24.20
2017-12-24T06:09:30.376Z,28.50
2017-12-24T06:11:58.537Z,25.63
2017-12-24T06:14:26.705Z,26.53
2017-12-24T06:16:54.844Z,25.93
2017-12-24T06:19:23.011Z,28.33
2017-12-24T06:21:51.155Z,21.33
2017-12-24T06:24:19.336Z,22.47
2017-12-24T06:26:47.496Z,26.33
2017-12-24T06:29:15.680Z,24.87
2017-12-24T06:31:43.822Z,23.97
2017-12-24T06:34:11.995Z,24.30
2017-12-24T06:36:40.137Z,25.13
2017-12-24T06:39:09.084Z,23.97
2017-12-24T06:41:37.252Z,19.83
2017-12-24T06:44:05.435Z,22.20
2017-12-24T06:46:33.579Z,24.00
2017-12-24T06:49:01.753Z,21.80
2017-12-24T06:51:29.905Z,20.93
2017-12-24T06:53:58.844Z,23.97
2017-12-24T06:56:26.990Z,21.67
2017-12-24T06:58:55.164Z,22.67
2017-12-24T07:01:23.324Z,21.97
2017-12-24T07:03:52.255Z,19.80
2017-12-24T07:06:20.409Z,21.10
2017-12-24T07:08:48.608Z,20.53
2017-12-24T07:11:16.754Z,17.33
2017-12-24T07:13:44.933Z,17.50
2017-12-24T07:16:14.214Z,17.23
2017-12-24T07:18:43.152Z,18.93
2017-12-24T07:21:11.298Z,19.30
2017-12-24T07:23:39.472Z,19.77
2017-12-24T07:26:07.646Z,16.30
2017-12-24T07:28:36.592Z,18.80
2017-12-24T07:31:04.760Z,20.03
2017-12-24T07:33:32.943Z,19.70
2017-12-24T07:36:01.081Z,15.70
2017-12-24T07:38:29.250Z,22.87
2017-12-24T07:40:57.398Z,15.30
2017-12-24T07:43:25.552Z,19.10
2017-12-24T07:45:53.693Z,18.60
2017-12-24T07:48:21.860Z,17.57
2017-12-24T07:50:50.093Z,18.00
2017-12-24T07:53:18.193Z,16.07
2017-12-24T07:55:47.500Z,14.50
2017-12-24T07:58:16.400Z,16.00
2017-12-24T08:00:44.568Z,17.17
2017-12-24T08:03:12.716Z,14.27
2017-12-24T08:05:40.903Z,16.33
2017-12-24T08:08:09.056Z,15.47
2017-12-24T08:10:37.237Z,13.73
2017-12-24T08:13:05.454Z,12.60
2017-12-24T08:15:33.647Z,16.57
2017-12-24T08:18:02.238Z,13.97
2017-12-24T08:20:30.501Z,14.90
2017-12-24T08:23:00.092Z,14.00
2017-12-24T08:25:28.168Z,14.63
2017-12-24T08:27:56.349Z,13.47
2017-12-24T08:30:24.519Z,17.20
2017-12-24T08:32:52.671Z,17.17
2017-12-24T08:35:20.839Z,16.50
2017-12-24T08:37:49.744Z,15.97
2017-12-24T08:40:17.918Z,18.23
2017-12-24T08:42:46.066Z,12.67
2017-12-24T08:45:15.010Z,14.60
2017-12-24T08:47:43.161Z,15.47
2017-12-24T08:50:11.333Z,16.60
2017-12-24T08:52:39.500Z,12.97
2017-12-24T08:55:07.675Z,15.97
2017-12-24T08:57:35.811Z,14.90
2017-12-24T09:00:04.104Z,10.60
2017-12-24T09:02:38.132Z,11.37
2017-12-24T09:05:07.256Z,10.70
2017-12-24T09:07:35.417Z,13.47
2017-12-24T09:10:04.068Z,12.23
2017-12-24T09:12:32.979Z,11.70
2017-12-24T09:15:01.857Z,10.07
2017-12-24T09:17:30.049Z,11.80
2017-12-24T09:19:58.228Z,10.37
2017-12-24T09:22:26.374Z,11.10
2017-12-24T09:24:54.529Z,15.57
2017-12-24T09:27:22.696Z,10.40
2017-12-24T09:29:50.977Z,11.33
2017-12-24T09:32:19.074Z,11.63
2017-12-24T09:34:48.409Z,12.03
2017-12-24T09:37:16.732Z,11.20
2017-12-24T09:39:44.953Z,12.13
2017-12-24T09:42:13.293Z,12.13
2017-12-24T09:44:42.242Z,11.30
2017-12-24T09:47:10.398Z,12.10
2017-12-24T09:49:38.569Z,13.10
2017-12-24T09:52:07.883Z,10.50
2017-12-24T09:54:36.112Z,11.93
2017-12-24T09:57:04.258Z,11.33
2017-12-24T09:59:32.417Z,9.40
2017-12-24T10:02:00.554Z,8.30
2017-12-24T10:04:29.492Z,7.43
2017-12-24T10:06:57.644Z,7.87
2017-12-24T10:09:25.803Z,7.67
2017-12-24T10:11:53.937Z,7.40
2017-12-24T10:14:22.111Z,9.60
2017-12-24T10:16:50.256Z,9.77
2017-12-24T10:19:18.444Z,8.83
2017-12-24T10:21:46.576Z,8.77
2017-12-24T10:24:14.778Z,7.37
2017-12-24T10:26:42.944Z,6.00
2017-12-24T10:29:11.178Z,7.40
2017-12-24T10:31:39.320Z,6.70
2017-12-24T10:34:07.473Z,6.30
2017-12-24T10:36:36.499Z,10.30
2017-12-24T10:39:04.917Z,5.53
2017-12-24T10:41:33.077Z,6.60
2017-12-24T10:44:01.986Z,4.73
2017-12-24T10:46:30.143Z,5.17
2017-12-24T10:48:59.060Z,4.83
2017-12-24T10:51:27.249Z,5.33
2017-12-24T10:53:55.405Z,6.00
2017-12-24T10:56:23.565Z,4.50
2017-12-24T10:58:51.789Z,6.13
2017-12-24T11:01:19.960Z,12.50
2017-12-24T11:03:48.119Z,6.27
2017-12-24T11:06:17.408Z,4.07
2017-12-24T11:08:45.572Z,7.13
2017-12-24T11:11:13.769Z,5.80
2017-12-24T11:13:41.967Z,6.20
2017-12-24T11:16:10.136Z,5.53
2017-12-24T11:18:38.276Z,6.40
2017-12-24T11:21:06.437Z,4.87
2017-12-24T11:23:34.584Z,5.13
2017-12-24T11:26:03.867Z,11.07
2017-12-24T11:28:32.081Z,5.70
2017-12-24T11:31:00.245Z,5.93
2017-12-24T11:33:29.246Z,7.03
2017-12-24T11:35:58.170Z,4.97
2017-12-24T11:38:26.329Z,5.10
2017-12-24T11:40:54.500Z,4.50
2017-12-24T11:43:22.633Z,4.63
2017-12-24T11:45:50.798Z,5.50
2017-12-24T11:48:18.948Z,3.80
2017-12-24T11:50:47.122Z,4.10
2017-12-24T11:53:15.268Z,2.90
2017-12-24T11:55:43.445Z,7.03
2017-12-24T11:58:11.603Z,4.30
2017-12-24T12:00:40.630Z,3.47
2017-12-24T12:03:09.334Z,3.60
2017-12-24T12:05:37.752Z,3.50
2017-12-24T12:08:06.712Z,3.57
2017-12-24T12:10:34.888Z,3.03
2017-12-24T12:13:03.030Z,3.30
2017-12-24T12:15:31.671Z,3.30
2017-12-24T12:18:00.516Z,3.27
2017-12-24T12:20:28.778Z,3.10
2017-12-24T12:22:56.978Z,3.43
2017-12-24T12:25:25.236Z,4.50
2017-12-24T12:27:53.386Z,3.13
2017-12-24T12:30:21.556Z,3.00
2017-12-24T12:32:49.833Z,5.43
2017-12-24T12:35:18.032Z,3.67
2017-12-24T12:37:46.236Z,3.80
2017-12-24T12:40:14.575Z,4.13
2017-12-24T12:42:42.849Z,2.90
2017-12-24T12:45:14.023Z,3.47
2017-12-24T12:47:42.551Z,3.03
2017-12-24T12:50:10.883Z,3.70
2017-12-24T12:52:39.955Z,3.80
2017-12-24T12:55:08.876Z,4.47
2017-12-24T12:57:37.034Z,3.93
2017-12-24T13:00:05.213Z,4.03
2017-12-24T13:02:40.065Z,5.97
2017-12-24T13:05:08.208Z,3.80
2017-12-24T13:07:36.386Z,13.73
2017-12-24T13:10:04.740Z,2.90
2017-12-24T13:12:32.935Z,5.40
2017-12-24T13:15:01.070Z,4.10
2017-12-24T13:17:29.382Z,4.97
2017-12-24T13:19:57.532Z,6.90
2017-12-24T13:22:25.693Z,7.00
2017-12-24T13:24:53.827Z,7.80
2017-12-24T13:27:21.988Z,4.50
2017-12-24T13:29:50.553Z,5.30
2017-12-24T13:32:19.481Z,7.37
2017-12-24T13:34:48.086Z,7.27
2017-12-24T13:37:17.256Z,7.80
2017-12-24T13:39:45.801Z,7.23
2017-12-24T13:42:14.729Z,6.97
2017-12-24T13:44:42.895Z,8.27
2017-12-24T13:47:11.052Z,6.40
2017-12-24T13:49:39.248Z,6.77
2017-12-24T13:52:07.409Z,6.50
2017-12-24T13:54:36.304Z,9.03
2017-12-24T13:57:07.260Z,8.90
2017-12-24T13:59:35.583Z,7.50
2017-12-24T14:02:03.748Z,9.37
2017-12-24T14:04:31.893Z,9.03
2017-12-24T14:07:00.058Z,6.57
2017-12-24T14:09:29.750Z,7.17
2017-12-24T14:11:57.910Z,5.37
2017-12-24T14:14:26.829Z,5.37
2017-12-24T14:16:55.022Z,6.00
2017-12-24T14:19:23.168Z,7.57
2017-12-24T14:21:51.374Z,5.77
2017-12-24T14:24:19.507Z,6.97
2017-12-24T14:26:47.665Z,5.77
2017-12-24T14:29:16.601Z,5.50
2017-12-24T14:31:44.761Z,4.93
2017-12-24T14:34:12.904Z,4.00
2017-12-24T14:36:41.840Z,4.97
2017-12-24T14:39:09.997Z,5.03
2017-12-24T14:41:38.165Z,4.93
2017-12-24T14:44:06.300Z,4.37
2017-12-24T14:46:34.464Z,5.33
2017-12-24T14:49:02.624Z,4.57
2017-12-24T14:51:30.805Z,6.10
2017-12-24T14:53:58.936Z,5.40
2017-12-24T14:56:27.137Z,4.87
2017-12-24T14:58:55.281Z,7.20
2017-12-24T15:01:24.221Z,4.73
2017-12-24T15:03:52.360Z,6.13
2017-12-24T15:06:20.524Z,8.37
2017-12-24T15:08:48.925Z,8.07
2017-12-24T15:11:17.824Z,5.00
2017-12-24T15:13:45.984Z,5.17
2017-12-24T15:16:14.144Z,7.07
2017-12-24T15:18:42.326Z,5.90
2017-12-24T15:21:10.491Z,6.10
2017-12-24T15:23:38.630Z,7.70
2017-12-24T15:26:07.585Z,7.60
2017-12-24T15:28:35.718Z,7.00
2017-12-24T15:31:03.852Z,6.60
2017-12-24T15:33:32.024Z,7.50
2017-12-24T15:36:00.165Z,7.40
2017-12-24T15:38:28.329Z,8.93
2017-12-24T15:40:56.462Z,9.30
2017-12-24T15:43:24.630Z,8.67
2017-12-24T15:45:53.565Z,10.90
2017-12-24T15:48:22.538Z,8.37
2017-12-24T15:50:51.024Z,9.37
2017-12-24T15:53:19.601Z,31.73
2017-12-24T15:55:47.779Z,16.07
2017-12-24T15:58:15.968Z,14.20
2017-12-24T16:00:44.172Z,56.30
2017-12-24T16:03:12.324Z,11.97
2017-12-24T16:05:40.470Z,13.33
2017-12-24T16:08:09.500Z,11.97
2017-12-24T16:10:37.636Z,18.10
2017-12-24T16:13:06.936Z,16.90
2017-12-24T16:15:35.852Z,13.17
2017-12-24T16:18:04.516Z,14.07
2017-12-24T16:20:33.416Z,14.60
2017-12-24T16:23:02.806Z,18.57
2017-12-24T16:25:31.049Z,18.20
2017-12-24T16:27:59.238Z,18.33
2017-12-24T16:30:29.964Z,24.70
2017-12-24T16:32:58.358Z,18.70
2017-12-24T16:35:27.305Z,18.37
2017-12-24T16:37:55.720Z,16.13
2017-12-24T16:40:23.862Z,13.53
2017-12-24T16:42:52.030Z,15.00
2017-12-24T16:45:20.172Z,15.00
2017-12-24T16:47:48.362Z,14.10
2017-12-24T16:50:17.027Z,15.30
2017-12-24T16:52:46.192Z,15.70
2017-12-24T16:55:14.340Z,15.03
2017-12-24T16:57:42.532Z,13.13
2017-12-24T17:00:10.706Z,14.80
2017-12-24T17:02:38.869Z,15.13
2017-12-24T17:05:07.049Z,14.13
2017-12-24T17:07:35.210Z,16.43
2017-12-24T17:10:03.792Z,15.97
2017-12-24T17:12:31.948Z,16.93
2017-12-24T17:15:00.178Z,12.27
2017-12-24T17:17:28.368Z,12.93
2017-12-24T17:19:56.529Z,12.53
2017-12-24T17:22:24.726Z,18.50
2017-12-24T17:24:52.861Z,12.80
2017-12-24T17:27:21.031Z,11.27
2017-12-24T17:29:49.173Z,14.87
2017-12-24T17:32:17.375Z,13.37
2017-12-24T17:34:45.521Z,11.30
2017-12-24T17:37:14.444Z,12.37
2017-12-24T17:39:42.633Z,13.20
2017-12-24T17:42:10.797Z,13.07
2017-12-24T17:44:38.944Z,13.90
2017-12-24T17:47:07.125Z,11.97
2017-12-24T17:49:35.260Z,12.63
2017-12-24T17:52:03.424Z,15.70
2017-12-24T17:54:31.568Z,14.13
2017-12-24T17:56:59.761Z,16.80
2017-12-24T17:59:27.924Z,11.90
2017-12-24T18:01:56.082Z,15.03
2017-12-24T18:04:24.269Z,15.10
2017-12-24T18:06:52.437Z,15.90
2017-12-24T18:09:20.603Z,15.60
2017-12-24T18:11:48.749Z,12.10
2017-12-24T18:14:16.923Z,13.90
2017-12-24T18:16:45.093Z,14.37
2017-12-24T18:19:13.298Z,12.90
2017-12-24T18:21:41.466Z,11.80
2017-12-24T18:24:09.629Z,14.03
2017-12-24T18:26:37.784Z,13.50
2017-12-24T18:29:05.972Z,12.90
2017-12-24T18:31:34.119Z,10.57
2017-12-24T18:34:02.547Z,13.00
2017-12-24T18:36:30.777Z,13.30
2017-12-24T18:38:59.724Z,12.53
2017-12-24T18:41:27.868Z,13.60
2017-12-24T18:43:56.057Z,12.60
2017-12-24T18:46:24.214Z,11.10
2017-12-24T18:48:52.390Z,11.90
2017-12-24T18:51:20.551Z,14.43
2017-12-24T18:53:48.737Z,13.47
2017-12-24T18:56:16.890Z,11.00
2017-12-24T18:58:45.840Z,13.00
2017-12-24T19:01:13.980Z,12.40
2017-12-24T19:03:42.186Z,11.87
2017-12-24T19:06:10.312Z,10.27
2017-12-24T19:08:39.248Z,15.73
2017-12-24T19:11:07.391Z,11.50
2017-12-24T19:13:35.572Z,12.60
2017-12-24T19:16:04.092Z,11.17
2017-12-24T19:18:32.265Z,12.07
2017-12-24T19:21:00.413Z,11.80
2017-12-24T19:23:28.577Z,11.30
2017-12-24T19:25:56.738Z,11.23
2017-12-24T19:28:24.910Z,10.17
2017-12-24T19:30:53.809Z,12.00
2017-12-24T19:33:23.341Z,12.63
2017-12-24T19:35:52.293Z,11.10
2017-12-24T19:38:20.466Z,9.70
2017-12-24T19:40:48.612Z,11.47
2017-12-24T19:43:17.568Z,11.03
2017-12-24T19:45:45.722Z,12.17
2017-12-24T19:48:13.906Z,11.60
2017-12-24T19:50:42.049Z,10.20
2017-12-24T19:53:11.373Z,10.67
2017-12-24T19:55:39.516Z,13.67
2017-12-24T19:58:07.682Z,16.33
2017-12-24T20:00:35.857Z,104.30
2017-12-24T20:03:04.000Z,57.73
2017-12-24T20:05:32.166Z,247.83
2017-12-24T20:08:00.324Z,110.17
2017-12-24T20:10:28.517Z,151.27
2017-12-24T20:12:56.681Z,21.60
2017-12-24T20:15:24.859Z,19.50
2017-12-24T20:17:53.046Z,18.20
2017-12-24T20:20:21.215Z,64.93
2017-12-24T20:22:49.358Z,24.30
2017-12-24T20:25:18.289Z,12.77
2017-12-24T20:27:46.464Z,15.17
2017-12-24T20:30:14.621Z,12.37
2017-12-24T20:32:42.760Z,12.30
2017-12-24T20:35:11.689Z,9.13
2017-12-24T20:37:39.861Z,12.90
2017-12-24T20:40:08.025Z,10.60
2017-12-24T20:42:36.184Z,12.90
2017-12-24T20:45:04.356Z,9.57
2017-12-24T20:50:33.217Z,11.80
2017-12-24T20:53:01.387Z,12.07
2017-12-24T20:55:29.573Z,12.33
2017-12-24T20:57:57.750Z,8.23
2017-12-24T21:00:25.937Z,10.03
2017-12-24T21:02:54.109Z,9.27
2017-12-24T21:05:22.289Z,10.43
2017-12-24T21:07:50.434Z,8.97
2017-12-24T21:10:18.594Z,10.53
2017-12-24T21:12:46.769Z,7.80
2017-12-24T21:15:14.919Z,11.90
2017-12-24T21:17:43.088Z,8.57
2017-12-24T21:20:11.991Z,7.77
2017-12-24T21:22:40.149Z,8.80
2017-12-24T21:25:08.318Z,8.97
2017-12-24T21:27:37.249Z,8.60
2017-12-24T21:30:05.522Z,9.13
2017-12-24T21:32:33.705Z,9.23
2017-12-24T21:35:01.848Z,9.90
2017-12-24T21:37:30.019Z,8.33
2017-12-24T21:39:58.156Z,8.53
2017-12-24T21:42:26.337Z,7.83
2017-12-24T21:44:56.034Z,7.27
2017-12-24T21:47:24.206Z,7.17
2017-12-24T21:49:52.350Z,8.43
2017-12-24T21:52:20.542Z,7.47
2017-12-24T21:54:48.715Z,7.53
2017-12-24T21:57:16.878Z,8.40
2017-12-24T21:59:45.033Z,13.07
2017-12-24T22:02:13.211Z,7.37
2017-12-24T22:04:41.373Z,15.40
2017-12-24T22:07:10.135Z,9.30
2017-12-24T22:09:38.441Z,8.47
2017-12-24T22:12:08.647Z,7.67
2017-12-24T22:14:37.590Z,9.20
2017-12-24T22:17:06.285Z,8.67
2017-12-24T22:19:35.813Z,7.77
2017-12-24T22:22:04.049Z,9.00
2017-12-24T22:24:32.469Z,10.13
2017-12-24T22:27:01.470Z,10.00
2017-12-24T22:29:30.385Z,10.97
2017-12-24T22:31:58.577Z,7.83
2017-12-24T22:34:32.950Z,9.97
2017-12-24T22:37:02.428Z,10.20
2017-12-24T22:39:30.802Z,9.87
2017-12-24T22:41:59.026Z,7.20
2017-12-24T22:44:27.242Z,11.50
2017-12-24T22:46:56.254Z,6.47
2017-12-24T22:49:24.960Z,9.23
2017-12-24T22:51:53.202Z,7.10
2017-12-24T22:54:22.529Z,8.07
2017-12-24T22:56:50.681Z,9.63
2017-12-24T22:59:18.843Z,8.07
2017-12-24T23:01:46.988Z,8.40
2017-12-24T23:04:17.518Z,7.03
2017-12-24T23:06:46.948Z,5.93
2017-12-24T23:09:15.129Z,8.27
2017-12-24T23:11:47.083Z,7.30
2017-12-24T23:14:15.293Z,7.10
2017-12-24T23:16:43.514Z,6.37
2017-12-24T23:21:49.938Z,6.77
2017-12-24T23:24:18.126Z,6.10
2017-12-24T23:26:46.313Z,7.30
2017-12-24T23:29:14.561Z,6.03
2017-12-24T23:31:42.747Z,5.13
2017-12-24T23:34:10.905Z,7.10
2017-12-24T23:36:39.054Z,7.27
2017-12-24T23:39:07.234Z,6.13
2017-12-24T23:41:35.377Z,5.50
2017-12-24T23:44:08.180Z,9.33
2017-12-24T23:46:41.866Z,8.30
2017-12-24T23:49:10.842Z,5.70
2017-12-24T23:51:39.794Z,5.13
2017-12-24T23:57:09.186Z,6.40
2017-12-24T23:59:39.334Z,6.57
